sensor_id;sensor_type;location;lat;lon;timestamp;P1;durP1;ratioP1;P2;durP2;ratioP2
10142;SDS011;5112;54.088;13.446;2022-12-29T00:09:17;4.27;;;3.03;;
10142;SDS011;5112;54.088;13.446;2022-12-29T00:19:19;3.97;;;3.67;;
10142;SDS011;5112;54.088;13.446;2022-12-29T00:29:40;6.97;;;3.33;;
10142;SDS011;5112;54.088;13.446;2022-12-29T00:39:59;4.97;;;3.67;;
10142;SDS011;5112;54.088;13.446;2022-12-29T00:50:20;3.80;;;3.00;;
10142;SDS011;5112;54.088;13.446;2022-12-29T01:00:21;3.70;;;3.30;;
10142;SDS011;5112;54.088;13.446;2022-12-29T01:10:24;3.87;;;3.47;;
10142;SDS011;5112;54.088;13.446;2022-12-29T01:20:26;3.50;;;3.20;;
10142;SDS011;5112;54.088;13.446;2022-12-29T01:30:29;5.47;;;3.30;;
10142;SDS011;5112;54.088;13.446;2022-12-29T01:40:31;4.43;;;4.03;;
10142;SDS011;5112;54.088;13.446;2022-12-29T01:50:35;4.70;;;3.90;;
10142;SDS011;5112;54.088;13.446;2022-12-29T02:00:41;4.27;;;3.87;;
10142;SDS011;5112;54.088;13.446;2022-12-29T02:10:45;4.27;;;3.67;;
10142;SDS011;5112;54.088;13.446;2022-12-29T02:31:33;4.20;;;3.60;;
10142;SDS011;5112;54.088;13.446;2022-12-29T02:41:42;4.93;;;3.67;;
10142;SDS011;5112;54.088;13.446;2022-12-29T02:51:53;5.73;;;3.57;;
10142;SDS011;5112;54.088;13.446;2022-12-29T03:02:07;3.83;;;3.53;;
10142;SDS011;5112;54.088;13.446;2022-12-29T03:12:32;5.37;;;3.63;;
10142;SDS011;5112;54.088;13.446;2022-12-29T03:22:59;4.20;;;3.67;;
10142;SDS011;5112;54.088;13.446;2022-12-29T03:33:04;4.37;;;3.73;;
10142;SDS011;5112;54.088;13.446;2022-12-29T03:43:10;3.63;;;3.33;;
10142;SDS011;5112;54.088;13.446;2022-12-29T03:53:14;4.13;;;3.60;;
10142;SDS011;5112;54.088;13.446;2022-12-29T04:03:15;5.23;;;3.77;;
10142;SDS011;5112;54.088;13.446;2022-12-29T04:13:18;3.73;;;3.13;;
10142;SDS011;5112;54.088;13.446;2022-12-29T04:23:20;4.03;;;3.30;;
10142;SDS011;5112;54.088;13.446;2022-12-29T04:33:23;3.30;;;3.10;;
10142;SDS011;5112;54.088;13.446;2022-12-29T04:43:25;4.47;;;2.93;;
10142;SDS011;5112;54.088;13.446;2022-12-29T04:53:28;4.10;;;3.35;;
10142;SDS011;5112;54.088;13.446;2022-12-29T05:03:30;2.90;;;2.70;;
10142;SDS011;5112;54.088;13.446;2022-12-29T05:13:33;3.08;;;2.78;;
10142;SDS011;5112;54.088;13.446;2022-12-29T05:23:34;3.00;;;2.60;;
10142;SDS011;5112;54.088;13.446;2022-12-29T05:33:37;2.63;;;2.20;;
10142;SDS011;5112;54.088;13.446;2022-12-29T05:43:39;2.40;;;2.20;;
10142;SDS011;5112;54.088;13.446;2022-12-29T05:53:42;2.73;;;2.20;;
10142;SDS011;5112;54.088;13.446;2022-12-29T06:03:43;2.30;;;2.10;;
10142;SDS011;5112;54.088;13.446;2022-12-29T06:13:46;2.57;;;2.37;;
10142;SDS011;5112;54.088;13.446;2022-12-29T06:23:48;3.07;;;2.20;;
10142;SDS011;5112;54.088;13.446;2022-12-29T06:33:51;2.40;;;2.20;;
10142;SDS011;5112;54.088;13.446;2022-12-29T06:43:53;2.87;;;2.37;;
10142;SDS011;5112;54.088;13.446;2022-12-29T06:53:56;2.80;;;2.37;;
10142;SDS011;5112;54.088;13.446;2022-12-29T07:03:57;2.50;;;2.27;;
10142;SDS011;5112;54.088;13.446;2022-12-29T07:14:00;2.60;;;2.40;;
10142;SDS011;5112;54.088;13.446;2022-12-29T07:24:02;3.20;;;2.90;;
10142;SDS011;5112;54.088;13.446;2022-12-29T07:34:07;3.23;;;2.63;;
10142;SDS011;5112;54.088;13.446;2022-12-29T07:44:09;3.50;;;3.03;;
10142;SDS011;5112;54.088;13.446;2022-12-29T07:54:12;3.63;;;2.50;;
10142;SDS011;5112;54.088;13.446;2022-12-29T08:04:14;2.40;;;2.20;;
10142;SDS011;5112;54.088;13.446;2022-12-29T08:14:17;2.40;;;2.20;;
10142;SDS011;5112;54.088;13.446;2022-12-29T08:24:19;4.03;;;2.53;;
10142;SDS011;5112;54.088;13.446;2022-12-29T08:34:22;2.30;;;2.17;;
10142;SDS011;5112;54.088;13.446;2022-12-29T08:44:24;2.77;;;2.37;;
10142;SDS011;5112;54.088;13.446;2022-12-29T08:54:27;2.50;;;2.20;;
10142;SDS011;5112;54.088;13.446;2022-12-29T09:04:28;3.63;;;2.03;;
10142;SDS011;5112;54.088;13.446;2022-12-29T09:14:31;2.07;;;1.63;;
10142;SDS011;5112;54.088;13.446;2022-12-29T09:24:33;2.00;;;1.80;;
10142;SDS011;5112;54.088;13.446;2022-12-29T09:34:36;1.63;;;1.53;;
10142;SDS011;5112;54.088;13.446;2022-12-29T09:44:43;1.80;;;1.70;;
10142;SDS011;5112;54.088;13.446;2022-12-29T09:54:55;2.10;;;1.90;;
10142;SDS011;5112;54.088;13.446;2022-12-29T10:04:58;2.10;;;1.90;;
10142;SDS011;5112;54.088;13.446;2022-12-29T10:15:04;2.03;;;1.70;;
10142;SDS011;5112;54.088;13.446;2022-12-29T10:25:16;1.43;;;1.33;;
10142;SDS011;5112;54.088;13.446;2022-12-29T10:35:21;1.63;;;1.53;;
10142;SDS011;5112;54.088;13.446;2022-12-29T10:45:25;1.97;;;1.23;;
10142;SDS011;5112;54.088;13.446;2022-12-29T10:55:33;0.80;;;0.80;;
10142;SDS011;5112;54.088;13.446;2022-12-29T11:05:38;2.80;;;1.07;;
10142;SDS011;5112;54.088;13.446;2022-12-29T11:15:48;1.20;;;1.10;;
10142;SDS011;5112;54.088;13.446;2022-12-29T11:36:18;1.17;;;1.00;;
10142;SDS011;5112;54.088;13.446;2022-12-29T11:46:23;2.93;;;0.80;;
10142;SDS011;5112;54.088;13.446;2022-12-29T11:56:34;1.43;;;0.60;;
10142;SDS011;5112;54.088;13.446;2022-12-29T12:06:40;0.67;;;0.50;;
10142;SDS011;5112;54.088;13.446;2022-12-29T12:16:47;0.40;;;0.40;;
10142;SDS011;5112;54.088;13.446;2022-12-29T12:26:55;0.70;;;0.70;;
10142;SDS011;5112;54.088;13.446;2022-12-29T12:37:09;1.63;;;0.87;;
10142;SDS011;5112;54.088;13.446;2022-12-29T12:47:27;1.83;;;1.00;;
10142;SDS011;5112;54.088;13.446;2022-12-29T12:57:48;1.30;;;1.00;;
10142;SDS011;5112;54.088;13.446;2022-12-29T13:07:58;1.73;;;1.13;;
10142;SDS011;5112;54.088;13.446;2022-12-29T13:18:11;0.77;;;0.73;;
10142;SDS011;5112;54.088;13.446;2022-12-29T13:28:22;1.93;;;1.00;;
10142;SDS011;5112;54.088;13.446;2022-12-29T13:38:32;2.97;;;1.33;;
10142;SDS011;5112;54.088;13.446;2022-12-29T13:48:38;2.43;;;0.73;;
10142;SDS011;5112;54.088;13.446;2022-12-29T13:58:46;2.43;;;1.10;;
10142;SDS011;5112;54.088;13.446;2022-12-29T14:08:54;2.77;;;0.73;;
10142;SDS011;5112;54.088;13.446;2022-12-29T14:19:09;1.80;;;1.33;;
10142;SDS011;5112;54.088;13.446;2022-12-29T14:29:41;2.13;;;1.30;;
10142;SDS011;5112;54.088;13.446;2022-12-29T14:39:45;3.00;;;1.40;;
10142;SDS011;5112;54.088;13.446;2022-12-29T14:49:47;6.93;;;3.67;;
10142;SDS011;5112;54.088;13.446;2022-12-29T14:59:54;2.77;;;1.30;;
10142;SDS011;5112;54.088;13.446;2022-12-29T15:10:00;5.30;;;1.60;;
10142;SDS011;5112;54.088;13.446;2022-12-29T15:20:19;4.27;;;1.43;;
10142;SDS011;5112;54.088;13.446;2022-12-29T15:30:23;3.07;;;1.53;;
10142;SDS011;5112;54.088;13.446;2022-12-29T15:40:28;2.70;;;2.27;;
10142;SDS011;5112;54.088;13.446;2022-12-29T15:50:31;2.37;;;1.53;;
10142;SDS011;5112;54.088;13.446;2022-12-29T16:00:36;3.40;;;2.15;;
10142;SDS011;5112;54.088;13.446;2022-12-29T16:10:38;2.63;;;2.07;;
10142;SDS011;5112;54.088;13.446;2022-12-29T16:20:44;3.63;;;2.30;;
10142;SDS011;5112;54.088;13.446;2022-12-29T16:30:46;3.43;;;2.27;;
10142;SDS011;5112;54.088;13.446;2022-12-29T16:40:59;4.20;;;2.13;;
10142;SDS011;5112;54.088;13.446;2022-12-29T16:51:02;3.70;;;2.50;;
10142;SDS011;5112;54.088;13.446;2022-12-29T17:01:08;2.53;;;2.33;;
10142;SDS011;5112;54.088;13.446;2022-12-29T17:11:19;3.30;;;1.93;;
10142;SDS011;5112;54.088;13.446;2022-12-29T17:21:42;2.27;;;1.80;;
10142;SDS011;5112;54.088;13.446;2022-12-29T17:31:44;2.73;;;2.20;;
10142;SDS011;5112;54.088;13.446;2022-12-29T17:41:47;2.67;;;1.20;;
10142;SDS011;5112;54.088;13.446;2022-12-29T17:51:49;2.47;;;1.60;;
10142;SDS011;5112;54.088;13.446;2022-12-29T18:01:52;3.50;;;2.13;;
10142;SDS011;5112;54.088;13.446;2022-12-29T18:11:54;1.73;;;1.50;;
10142;SDS011;5112;54.088;13.446;2022-12-29T18:21:57;3.43;;;1.50;;
10142;SDS011;5112;54.088;13.446;2022-12-29T18:31:58;3.10;;;1.63;;
10142;SDS011;5112;54.088;13.446;2022-12-29T18:42:01;8.37;;;1.50;;
10142;SDS011;5112;54.088;13.446;2022-12-29T18:52:03;2.30;;;1.43;;
10142;SDS011;5112;54.088;13.446;2022-12-29T19:02:08;3.60;;;1.90;;
10142;SDS011;5112;54.088;13.446;2022-12-29T19:12:16;3.97;;;1.93;;
10142;SDS011;5112;54.088;13.446;2022-12-29T19:22:19;2.53;;;1.77;;
10142;SDS011;5112;54.088;13.446;2022-12-29T19:32:21;4.20;;;2.17;;
10142;SDS011;5112;54.088;13.446;2022-12-29T19:42:24;2.53;;;1.30;;
10142;SDS011;5112;54.088;13.446;2022-12-29T19:52:26;2.97;;;1.70;;
10142;SDS011;5112;54.088;13.446;2022-12-29T20:02:31;3.93;;;1.67;;
10142;SDS011;5112;54.088;13.446;2022-12-29T20:12:34;2.13;;;1.70;;
10142;SDS011;5112;54.088;13.446;2022-12-29T20:22:38;4.47;;;1.60;;
10142;SDS011;5112;54.088;13.446;2022-12-29T20:32:39;3.50;;;2.10;;
10142;SDS011;5112;54.088;13.446;2022-12-29T20:42:42;6.73;;;2.27;;
10142;SDS011;5112;54.088;13.446;2022-12-29T20:52:44;3.77;;;2.40;;
10142;SDS011;5112;54.088;13.446;2022-12-29T21:02:47;4.90;;;2.00;;
10142;SDS011;5112;54.088;13.446;2022-12-29T21:12:51;5.77;;;1.90;;
10142;SDS011;5112;54.088;13.446;2022-12-29T21:22:54;1.97;;;1.70;;
10142;SDS011;5112;54.088;13.446;2022-12-29T21:32:56;5.83;;;2.37;;
10142;SDS011;5112;54.088;13.446;2022-12-29T21:42:59;2.53;;;1.63;;
10142;SDS011;5112;54.088;13.446;2022-12-29T21:53:01;6.87;;;2.13;;
10142;SDS011;5112;54.088;13.446;2022-12-29T22:03:04;5.87;;;2.00;;
10142;SDS011;5112;54.088;13.446;2022-12-29T22:13:23;3.70;;;2.20;;
10142;SDS011;5112;54.088;13.446;2022-12-29T22:23:26;4.13;;;2.33;;
10142;SDS011;5112;54.088;13.446;2022-12-29T22:33:28;5.30;;;2.27;;
10142;SDS011;5112;54.088;13.446;2022-12-29T22:43:31;4.10;;;2.00;;
10142;SDS011;5112;54.088;13.446;2022-12-29T22:53:33;3.43;;;2.07;;
10142;SDS011;5112;54.088;13.446;2022-12-29T23:03:36;4.40;;;1.90;;
10142;SDS011;5112;54.088;13.446;2022-12-29T23:13:38;2.10;;;1.87;;
10142;SDS011;5112;54.088;13.446;2022-12-29T23:23:42;4.17;;;2.40;;
10142;SDS011;5112;54.088;13.446;2022-12-29T23:33:55;4.57;;;1.80;;
10142;SDS011;5112;54.088;13.446;2022-12-29T23:43:58;2.00;;;1.60;;
10142;SDS011;5112;54.088;13.446;2022-12-29T23:54:00;3.90;;;2.00;;
